createdAt,value
2018-12-30T00:02:16.098Z,6.64
2018-12-30T00:04:45.750Z,6.07
2018-12-30T00:07:15.652Z,6.40
2018-12-30T00:09:45.399Z,6.53
2018-12-30T00:12:15.265Z,6.38
2018-12-30T00:14:44.932Z,6.42
2018-12-30T00:17:14.545Z,6.59
2018-12-30T00:19:44.148Z,6.35
2018-12-30T00:29:38.729Z,6.94
2018-12-30T00:33:16.847Z,7.02
2018-12-30T01:31:19.812Z,5.88
2018-12-30T01:33:49.952Z,5.84
2018-12-30T01:36:19.576Z,5.61
2018-12-30T01:38:49.176Z,5.72
2018-12-30T01:41:19.064Z,5.48
2018-12-30T01:43:48.646Z,5.55
2018-12-30T01:46:18.511Z,5.47
2018-12-30T01:48:48.384Z,5.41
2018-12-30T01:51:18.043Z,5.37
2018-12-30T01:53:47.669Z,5.46
2018-12-30T01:56:17.339Z,5.36
2018-12-30T02:06:53.194Z,5.45
2018-12-30T02:09:22.847Z,5.69
2018-12-30T02:11:52.466Z,5.63
2018-12-30T02:14:22.043Z,5.51
2018-12-30T02:16:53.410Z,5.33
2018-12-30T02:19:23.048Z,5.43
2018-12-30T02:21:52.651Z,5.64
2018-12-30T02:24:22.248Z,5.37
2018-12-30T02:26:51.798Z,5.58
2018-12-30T02:29:21.570Z,5.33
2018-12-30T02:34:45.707Z,5.47
2018-12-30T02:37:15.466Z,5.56
2018-12-30T02:39:45.111Z,5.69
2018-12-30T02:42:14.699Z,6.04
2018-12-30T02:47:38.755Z,5.90
2018-12-30T02:53:02.795Z,5.74
2018-12-30T02:55:32.464Z,5.75
2018-12-30T02:58:02.036Z,5.84
2018-12-30T03:00:31.601Z,5.92
2018-12-30T03:13:17.243Z,5.91
2018-12-30T03:15:46.889Z,5.68
2018-12-30T03:18:16.523Z,5.79
2018-12-30T03:20:46.173Z,5.93
2018-12-30T03:23:16.093Z,5.93
2018-12-30T03:25:45.671Z,5.88
2018-12-30T03:28:15.271Z,6.19
2018-12-30T03:31:04.922Z,5.91
2018-12-30T03:33:34.518Z,6.02
2018-12-30T03:36:04.113Z,6.04
2018-12-30T03:41:08.369Z,6.19
2018-12-30T03:43:38.005Z,6.24
2018-12-30T03:46:07.648Z,6.35
2018-12-30T03:48:37.262Z,6.29
2018-12-30T03:51:06.904Z,6.27
2018-12-30T03:53:36.461Z,5.73
2018-12-30T03:56:06.078Z,6.48
2018-12-30T03:58:35.724Z,6.42
2018-12-30T04:01:05.319Z,6.27
2018-12-30T04:03:34.925Z,6.38
2018-12-30T04:06:04.577Z,6.36
2018-12-30T04:08:34.266Z,6.45
2018-12-30T04:11:03.838Z,6.49
2018-12-30T04:13:33.454Z,6.50
2018-12-30T04:16:03.048Z,6.50
2018-12-30T04:18:32.723Z,6.43
2018-12-30T04:21:02.373Z,6.39
2018-12-30T04:23:31.933Z,6.49
2018-12-30T04:26:01.506Z,6.40
2018-12-30T04:53:29.315Z,6.58
2018-12-30T05:00:46.489Z,6.42
2018-12-30T05:04:01.019Z,7.05
2018-12-30T05:32:05.573Z,6.52
2018-12-30T05:34:35.148Z,6.44
2018-12-30T05:37:04.776Z,6.80
2018-12-30T05:39:34.445Z,6.82
2018-12-30T05:42:04.039Z,6.47
2018-12-30T05:44:33.609Z,6.24
2018-12-30T05:47:03.704Z,6.47
2018-12-30T05:49:33.273Z,6.50
2018-12-30T05:52:02.879Z,6.07
2018-12-30T05:54:32.505Z,6.51
2018-12-30T05:57:02.077Z,7.20
2018-12-30T05:59:31.695Z,7.14
2018-12-30T06:02:01.354Z,6.76
2018-12-30T06:04:30.948Z,6.53
2018-12-30T06:07:00.524Z,6.59
2018-12-30T06:09:30.147Z,6.63
2018-12-30T06:11:59.923Z,6.44
2018-12-30T06:14:29.462Z,6.55
2018-12-30T06:16:59.114Z,6.47
2018-12-30T06:19:28.708Z,6.47
2018-12-30T06:21:58.285Z,6.45
2018-12-30T06:24:27.903Z,6.61
2018-12-30T06:26:57.467Z,6.67
2018-12-30T06:29:27.073Z,6.58
2018-12-30T06:34:51.080Z,7.01
2018-12-30T06:37:20.701Z,7.03
2018-12-30T06:39:50.321Z,7.48
2018-12-30T06:42:19.869Z,7.09
2018-12-30T06:44:49.509Z,7.19
2018-12-30T06:47:19.072Z,7.30
2018-12-30T06:49:48.705Z,7.28
2018-12-30T06:52:18.372Z,7.32
2018-12-30T06:54:47.997Z,7.50
2018-12-30T06:57:17.585Z,7.12
2018-12-30T06:59:47.213Z,7.02
2018-12-30T07:08:40.742Z,7.45
2018-12-30T07:11:10.375Z,7.84
2018-12-30T07:13:39.961Z,8.04
2018-12-30T08:04:57.439Z,7.69
2018-12-30T08:29:40.710Z,8.13
2018-12-30T08:32:10.340Z,7.77
2018-12-30T08:34:39.924Z,8.46
2018-12-30T08:37:09.580Z,8.61
2018-12-30T08:39:40.029Z,8.82
2018-12-30T08:42:10.580Z,8.58
2018-12-30T08:44:40.248Z,8.68
2018-12-30T08:47:09.832Z,8.62
2018-12-30T08:49:39.421Z,8.70
2018-12-30T08:52:09.051Z,8.41
2018-12-30T08:54:38.648Z,8.58
2018-12-30T08:57:08.255Z,8.55
2018-12-30T08:59:37.923Z,8.51
2018-12-30T09:02:07.617Z,8.80
2018-12-30T09:04:37.234Z,8.40
2018-12-30T09:07:07.032Z,8.59
2018-12-30T09:09:36.737Z,8.32
2018-12-30T09:12:06.398Z,8.49
2018-12-30T09:17:11.087Z,8.61
2018-12-30T09:19:40.727Z,8.55
2018-12-30T09:22:10.318Z,8.40
2018-12-30T09:24:39.940Z,8.74
2018-12-30T09:27:09.587Z,8.76
2018-12-30T09:29:39.196Z,8.77
2018-12-30T09:32:08.812Z,8.69
2018-12-30T09:34:38.457Z,8.78
2018-12-30T09:37:08.051Z,8.38
2018-12-30T09:39:37.676Z,8.38
2018-12-30T09:42:07.363Z,8.17
2018-12-30T09:44:36.971Z,8.30
2018-12-30T09:47:06.640Z,8.45
2018-12-30T09:52:11.678Z,8.54
2018-12-30T09:57:16.810Z,8.75
2018-12-30T09:59:46.485Z,8.66
2018-12-30T10:02:16.078Z,8.94
2018-12-30T10:04:45.655Z,8.98
2018-12-30T10:07:15.285Z,9.11
2018-12-30T10:09:44.989Z,9.04
2018-12-30T10:12:14.598Z,8.70
2018-12-30T10:14:44.283Z,8.71
2018-12-30T10:17:13.933Z,8.60
2018-12-30T10:19:43.533Z,8.68
2018-12-30T10:22:13.171Z,8.60
2018-12-30T10:24:42.911Z,8.34
2018-12-30T10:27:12.497Z,8.64
2018-12-30T10:29:42.119Z,8.40
2018-12-30T10:32:11.746Z,8.71
2018-12-30T10:34:41.310Z,8.57
2018-12-30T10:37:10.959Z,8.81
2018-12-30T10:39:40.520Z,8.70
2018-12-30T10:42:10.147Z,8.81
2018-12-30T10:44:39.809Z,8.83
2018-12-30T10:47:09.439Z,8.89
2018-12-30T10:49:39.046Z,9.10
2018-12-30T10:52:08.718Z,8.99
2018-12-30T10:54:38.342Z,9.16
2018-12-30T10:57:07.963Z,8.95
2018-12-30T10:59:37.609Z,9.37
2018-12-30T11:02:07.209Z,9.33
2018-12-30T11:04:36.795Z,9.24
2018-12-30T11:07:06.468Z,9.01
2018-12-30T11:09:36.052Z,9.06
2018-12-30T11:12:05.742Z,9.13
2018-12-30T11:14:35.399Z,9.31
2018-12-30T11:17:05.059Z,9.15
2018-12-30T11:19:34.660Z,9.28
2018-12-30T11:22:04.359Z,9.10
2018-12-30T11:24:34.050Z,9.49
2018-12-30T11:27:03.621Z,9.73
2018-12-30T11:29:33.261Z,9.37
2018-12-30T11:32:03.056Z,9.40
2018-12-30T11:34:32.680Z,9.41
2018-12-30T11:39:37.255Z,9.74
2018-12-30T11:42:06.916Z,9.49
2018-12-30T11:44:36.487Z,9.50
2018-12-30T11:47:06.100Z,9.48
2018-12-30T11:49:35.753Z,9.56
2018-12-30T11:52:05.419Z,9.42
2018-12-30T11:54:34.999Z,9.86
2018-12-30T11:57:04.641Z,9.86
2018-12-30T11:59:34.231Z,9.78
2018-12-30T12:02:03.828Z,9.96
2018-12-30T12:04:33.535Z,9.69
2018-12-30T12:07:03.196Z,9.48
2018-12-30T12:09:32.910Z,10.05
2018-12-30T12:12:02.647Z,10.05
2018-12-30T12:14:32.310Z,9.83
2018-12-30T12:17:01.887Z,10.09
2018-12-30T12:22:06.233Z,9.51
2018-12-30T12:24:35.859Z,9.65
2018-12-30T12:27:05.489Z,9.75
2018-12-30T12:29:35.086Z,9.69
2018-12-30T12:32:04.732Z,9.87
2018-12-30T12:34:34.336Z,9.86
2018-12-30T12:37:03.972Z,9.71
2018-12-30T12:39:33.849Z,9.58
2018-12-30T12:42:03.441Z,9.84
2018-12-30T12:44:33.077Z,9.76
2018-12-30T12:47:02.738Z,9.71
2018-12-30T12:49:32.314Z,9.95
2018-12-30T12:55:29.754Z,10.10
2018-12-30T12:57:59.424Z,9.99
2018-12-30T13:00:28.985Z,10.11
2018-12-30T13:02:58.595Z,9.98
2018-12-30T13:05:28.247Z,10.10
2018-12-30T13:07:57.866Z,10.25
2018-12-30T13:10:27.462Z,9.94
2018-12-30T13:12:57.132Z,9.96
2018-12-30T13:15:26.704Z,9.96
2018-12-30T13:17:56.325Z,9.85
2018-12-30T13:20:25.980Z,10.09
2018-12-30T13:22:55.593Z,9.80
2018-12-30T13:25:25.197Z,9.92
2018-12-30T13:27:54.908Z,9.78
2018-12-30T13:30:24.476Z,9.75
2018-12-30T13:32:54.044Z,9.94
2018-12-30T13:35:23.750Z,9.84
2018-12-30T13:37:53.330Z,9.94
2018-12-30T13:40:22.923Z,9.65
2018-12-30T13:42:52.870Z,9.74
2018-12-30T13:45:22.452Z,9.93
2018-12-30T13:47:52.067Z,9.85
2018-12-30T13:52:57.345Z,9.67
2018-12-30T13:55:26.989Z,9.80
2018-12-30T13:57:56.575Z,9.51
2018-12-30T14:00:26.171Z,9.68
2018-12-30T14:02:55.836Z,9.95
2018-12-30T14:05:25.439Z,10.10
2018-12-30T14:07:55.013Z,10.00
2018-12-30T14:10:24.784Z,9.93
2018-12-30T14:12:54.440Z,10.01
2018-12-30T14:15:24.075Z,9.91
2018-12-30T14:17:53.713Z,10.22
2018-12-30T14:20:23.309Z,10.38
2018-12-30T14:22:52.936Z,10.11
2018-12-30T14:25:22.579Z,10.34
2018-12-30T14:27:52.196Z,10.58
2018-12-30T14:30:21.781Z,10.78
2018-12-30T14:32:51.433Z,11.04
2018-12-30T14:35:20.999Z,10.53
2018-12-30T14:37:50.596Z,10.09
2018-12-30T14:40:20.257Z,9.99
2018-12-30T14:42:49.842Z,9.79
2018-12-30T14:45:19.431Z,9.48
2018-12-30T14:47:49.042Z,9.43
2018-12-30T14:50:18.614Z,9.46
2018-12-30T14:52:48.215Z,9.37
2018-12-30T14:55:17.879Z,9.25
2018-12-30T14:57:47.468Z,9.08
2018-12-30T15:00:17.153Z,9.08
2018-12-30T15:02:46.803Z,9.00
2018-12-30T15:05:16.456Z,9.09
2018-12-30T15:07:46.069Z,8.92
2018-12-30T15:10:15.937Z,9.05
2018-12-30T15:12:45.505Z,8.85
2018-12-30T15:15:15.098Z,8.81
2018-12-30T15:17:44.743Z,8.75
2018-12-30T15:20:14.387Z,8.63
2018-12-30T15:22:43.995Z,8.64
2018-12-30T15:25:13.690Z,8.65
2018-12-30T15:27:43.292Z,8.61
2018-12-30T15:30:12.905Z,8.47
2018-12-30T15:32:42.547Z,8.43
2018-12-30T15:35:12.178Z,8.41
2018-12-30T15:37:41.784Z,8.26
2018-12-30T15:40:11.467Z,8.35
2018-12-30T15:42:41.077Z,8.29
2018-12-30T15:45:10.680Z,8.31
2018-12-30T15:50:34.524Z,8.45
2018-12-30T15:53:04.195Z,8.62
2018-12-30T15:55:33.771Z,8.79
2018-12-30T15:58:03.426Z,9.11
2018-12-30T16:00:33.085Z,8.50
2018-12-30T16:03:02.692Z,8.59
2018-12-30T16:05:32.306Z,8.62
2018-12-30T16:08:01.984Z,8.48
2018-12-30T16:10:31.614Z,8.79
2018-12-30T16:13:01.215Z,8.57
2018-12-30T16:15:30.970Z,8.33
2018-12-30T16:18:00.591Z,8.25
2018-12-30T16:20:30.180Z,8.33
2018-12-30T16:22:59.856Z,8.24
2018-12-30T16:25:29.506Z,8.45
2018-12-30T16:27:59.142Z,8.37
2018-12-30T16:30:28.791Z,8.27
2018-12-30T16:32:58.446Z,8.35
2018-12-30T16:35:28.053Z,8.40
2018-12-30T17:31:36.272Z,8.33
2018-12-30T19:30:11.755Z,8.35
2018-12-30T19:32:41.329Z,7.94
2018-12-30T19:35:10.916Z,7.82
2018-12-30T19:37:40.556Z,7.69
2018-12-30T19:40:11.586Z,7.98
2018-12-30T19:42:41.182Z,7.94
2018-12-30T19:47:46.381Z,7.64
2018-12-30T19:50:16.063Z,7.72
2018-12-30T19:52:45.705Z,7.79
2018-12-30T19:55:15.427Z,8.17
2018-12-30T19:57:45.073Z,7.99
2018-12-30T20:00:14.626Z,7.88
2018-12-30T20:02:44.267Z,7.86
2018-12-30T20:05:14.100Z,7.92
2018-12-30T20:07:43.707Z,7.94
2018-12-30T20:10:13.338Z,7.80
2018-12-30T20:12:43.071Z,7.95
2018-12-30T20:15:12.669Z,7.75
2018-12-30T20:17:42.299Z,8.06
2018-12-30T20:20:11.977Z,7.93
2018-12-30T20:22:41.571Z,8.08
2018-12-30T20:25:11.145Z,7.74
2018-12-30T20:27:40.850Z,7.69
2018-12-30T20:30:10.474Z,7.51
2018-12-30T20:32:40.068Z,7.90
2018-12-30T20:35:09.679Z,7.39
2018-12-30T20:37:39.283Z,7.53
2018-12-30T20:40:08.894Z,7.50
2018-12-30T20:42:38.561Z,7.74
2018-12-30T20:45:08.257Z,7.62
2018-12-30T20:47:37.860Z,7.37
2018-12-30T20:50:07.740Z,7.45
2018-12-30T20:52:37.339Z,7.39
2018-12-30T20:55:07.174Z,7.50
2018-12-30T20:57:36.797Z,7.41
2018-12-30T21:00:07.509Z,7.38
2018-12-30T21:02:37.136Z,7.33
2018-12-30T21:05:07.404Z,7.35
2018-12-30T21:07:37.013Z,7.35
2018-12-30T21:10:07.362Z,7.32
2018-12-30T21:12:37.043Z,7.51
2018-12-30T21:15:07.180Z,7.38
2018-12-30T21:17:36.760Z,7.20
2018-12-30T21:20:06.534Z,7.42
2018-12-30T21:22:36.146Z,7.53
2018-12-30T21:25:05.849Z,7.21
2018-12-30T21:27:35.508Z,7.24
2018-12-30T21:30:44.266Z,7.19
2018-12-30T21:33:13.926Z,7.55
2018-12-30T21:35:43.526Z,7.58
2018-12-30T21:38:13.104Z,7.51
2018-12-30T21:40:42.754Z,7.44
2018-12-30T21:43:12.365Z,7.50
2018-12-30T21:45:42.001Z,7.43
2018-12-30T21:48:11.639Z,7.62
2018-12-30T21:50:41.261Z,7.48
2018-12-30T21:53:10.962Z,7.78
2018-12-30T21:55:40.624Z,7.75
2018-12-30T21:58:10.196Z,7.97
2018-12-30T22:00:39.813Z,7.74
2018-12-30T22:03:09.490Z,7.85
2018-12-30T22:05:39.105Z,7.63
2018-12-30T22:08:08.696Z,7.65
2018-12-30T22:10:38.330Z,8.01
2018-12-30T22:13:07.927Z,7.80
2018-12-30T22:15:37.499Z,7.91
2018-12-30T22:18:07.153Z,7.71
2018-12-30T22:20:36.849Z,7.48
2018-12-30T22:23:06.405Z,7.32
2018-12-30T22:25:36.092Z,7.11
2018-12-30T22:28:05.702Z,7.18
2018-12-30T22:30:35.337Z,7.15
2018-12-30T22:33:05.256Z,7.24
2018-12-30T22:35:34.884Z,7.75
2018-12-30T22:38:04.533Z,7.69
2018-12-30T22:40:34.244Z,7.89
2018-12-30T22:43:03.828Z,7.89
2018-12-30T22:45:33.421Z,7.53
2018-12-30T22:50:38.315Z,7.98
2018-12-30T22:53:07.962Z,7.71
2018-12-30T22:55:37.580Z,7.57
2018-12-30T22:58:07.202Z,7.57
2018-12-30T23:00:55.879Z,7.14
2018-12-30T23:03:25.486Z,6.94
2018-12-30T23:05:55.160Z,6.85
2018-12-30T23:11:00.266Z,6.53
2018-12-30T23:13:29.929Z,6.71
2018-12-30T23:15:59.542Z,6.61
2018-12-30T23:18:29.121Z,6.64
2018-12-30T23:20:58.775Z,6.80
2018-12-30T23:23:28.337Z,6.68
2018-12-30T23:25:57.949Z,6.60
2018-12-30T23:28:27.569Z,6.56
2018-12-30T23:30:57.175Z,6.61
2018-12-30T23:33:26.769Z,6.73
2018-12-30T23:35:56.400Z,6.85
2018-12-30T23:38:25.973Z,6.79
2018-12-30T23:40:55.569Z,6.88
2018-12-30T23:43:25.233Z,6.77
2018-12-30T23:45:54.839Z,6.61
2018-12-30T23:48:24.438Z,6.64
2018-12-30T23:50:54.095Z,6.47
2018-12-30T23:53:23.708Z,6.80
2018-12-30T23:55:53.287Z,6.94
2018-12-30T23:58:22.921Z,6.80
